Wallingford, Connecticut
Current Conditions -  °F | °C
As of 4:53 AM on Wednesday 22 Oct 2014 (Local Time) from KMMK Reporting Station
Overcast Overcast  
Wind Chill: 54°   Ceiling: 1100
Heat Index: 54°   Visibility: 10mi
Dew Point: 49°   Wind: 12mph
Humidity: 83%   Direction: 10°N
Pressure: 29.93"   Gusts: 21mph
Location:  41.46°N, 72.82°W
Report Text: KMMK 220853Z AUTO 01010G18KT 10SM OVC011 12/09 A2993 RMK AO2 SLP136 T01220094 55001 TSNO
Loading
Personal Weather Stations






























Interactive Weather Map
Tropical Storm Tracking
New forecast layout! Learn more

10-Day Weather Forecast

Advertisements
Track Severe Weather on mobile